createdAt,value
2018-12-18T00:01:19.737Z,24.03
2018-12-18T00:03:49.900Z,27.03
2018-12-18T00:06:19.788Z,27.57
2018-12-18T00:08:49.594Z,28.63
2018-12-18T00:11:19.406Z,24.93
2018-12-18T00:13:49.232Z,26.33
2018-12-18T00:16:19.344Z,29.17
2018-12-18T00:18:49.083Z,20.97
2018-12-18T00:21:18.904Z,20.10
2018-12-18T00:23:49.420Z,18.10
2018-12-18T00:26:19.356Z,18.10
2018-12-18T00:28:49.546Z,17.07
2018-12-18T00:31:19.904Z,13.97
2018-12-18T00:33:49.661Z,11.63
2018-12-18T00:36:19.452Z,11.97
2018-12-18T00:38:49.156Z,14.43
2018-12-18T00:41:18.907Z,13.90
2018-12-18T00:43:48.716Z,9.53
2018-12-18T00:46:18.558Z,9.60
2018-12-18T00:48:48.534Z,14.10
2018-12-18T00:51:18.332Z,11.13
2018-12-18T00:53:48.524Z,11.90
2018-12-18T00:56:19.034Z,11.77
2018-12-18T01:02:24.544Z,9.97
2018-12-18T01:04:54.806Z,8.07
2018-12-18T01:07:25.649Z,9.57
2018-12-18T01:09:55.445Z,8.93
2018-12-18T01:12:25.321Z,9.20
2018-12-18T01:14:55.229Z,10.07
2018-12-18T01:17:25.010Z,10.47
2018-12-18T01:19:54.905Z,10.67
2018-12-18T01:22:24.673Z,10.80
2018-12-18T01:24:54.521Z,10.03
2018-12-18T01:27:24.267Z,8.97
2018-12-18T01:29:54.023Z,8.33
2018-12-18T01:32:24.179Z,8.37
2018-12-18T01:34:54.262Z,8.73
2018-12-18T01:37:24.137Z,8.63
2018-12-18T01:39:54.429Z,8.57
2018-12-18T01:42:24.705Z,8.00
2018-12-18T01:44:55.164Z,8.80
2018-12-18T01:47:24.994Z,9.33
2018-12-18T01:49:55.046Z,11.07
2018-12-18T01:52:24.843Z,10.23
2018-12-18T01:54:54.764Z,8.57
2018-12-18T01:57:24.983Z,9.63
2018-12-18T01:59:54.736Z,9.80
2018-12-18T02:02:24.543Z,18.80
2018-12-18T02:04:54.652Z,10.73
2018-12-18T02:07:24.444Z,28.73
2018-12-18T02:09:54.734Z,17.07
2018-12-18T02:12:24.491Z,13.70
2018-12-18T02:18:30.294Z,10.83
2018-12-18T02:21:00.062Z,10.27
2018-12-18T02:23:29.918Z,10.03
2018-12-18T02:25:59.652Z,9.13
2018-12-18T02:28:29.510Z,8.10
2018-12-18T02:30:59.279Z,7.13
2018-12-18T02:33:29.052Z,8.73
2018-12-18T02:35:59.078Z,8.43
2018-12-18T02:38:28.820Z,9.37
2018-12-18T02:40:58.589Z,9.50
2018-12-18T02:43:28.375Z,11.03
2018-12-18T02:45:58.156Z,9.83
2018-12-18T02:48:28.749Z,9.90
2018-12-18T02:50:58.553Z,10.07
2018-12-18T02:53:28.345Z,10.73
2018-12-18T02:55:58.143Z,10.50
2018-12-18T02:58:28.159Z,9.97
2018-12-18T03:00:57.942Z,11.03
2018-12-18T03:03:28.024Z,10.20
2018-12-18T03:05:57.813Z,9.67
2018-12-18T03:08:27.601Z,313.47
2018-12-18T03:10:57.390Z,49.33
2018-12-18T03:13:27.367Z,63.00
2018-12-18T03:15:57.151Z,320.00
2018-12-18T03:18:26.965Z,336.83
2018-12-18T03:20:56.783Z,363.07
2018-12-18T03:23:26.548Z,403.47
2018-12-18T03:25:56.427Z,407.97
2018-12-18T03:28:26.229Z,402.40
2018-12-18T03:30:57.505Z,420.10
2018-12-18T03:33:28.177Z,310.77
2018-12-18T03:35:57.996Z,199.60
2018-12-18T03:38:27.810Z,368.17
2018-12-18T03:40:58.396Z,464.07
2018-12-18T03:43:28.325Z,544.93
2018-12-18T03:45:58.371Z,546.87
2018-12-18T03:48:28.250Z,530.43
2018-12-18T03:50:58.068Z,369.27
2018-12-18T03:53:28.227Z,362.13
2018-12-18T03:55:58.536Z,397.80
2018-12-18T03:58:28.355Z,562.80
2018-12-18T04:00:58.446Z,451.43
2018-12-18T04:03:28.342Z,358.30
2018-12-18T04:05:58.668Z,496.03
2018-12-18T04:08:29.761Z,445.17
2018-12-18T04:10:59.971Z,444.23
2018-12-18T04:13:30.017Z,417.37
2018-12-18T04:16:00.322Z,644.47
2018-12-18T04:18:30.697Z,427.33
2018-12-18T04:21:00.731Z,536.37
2018-12-18T04:23:30.580Z,219.13
2018-12-18T04:26:00.422Z,500.50
2018-12-18T04:28:30.242Z,496.23
2018-12-18T04:31:00.608Z,354.00
2018-12-18T04:33:31.422Z,558.27
2018-12-18T04:36:01.212Z,329.37
2018-12-18T04:38:31.128Z,327.27
2018-12-18T04:41:02.064Z,671.57
2018-12-18T04:43:31.873Z,486.73
2018-12-18T04:46:01.858Z,177.20
2018-12-18T04:48:32.087Z,225.20
2018-12-18T04:51:02.136Z,248.33
2018-12-18T04:53:32.024Z,464.33
2018-12-18T04:56:01.870Z,176.33
2018-12-18T04:58:32.412Z,337.57
2018-12-18T05:01:02.241Z,216.20
2018-12-18T05:03:32.231Z,136.73
2018-12-18T05:06:02.801Z,282.87
2018-12-18T05:08:32.949Z,119.13
2018-12-18T05:11:03.052Z,197.47
2018-12-18T05:13:33.537Z,216.43
2018-12-18T05:16:03.416Z,231.10
2018-12-18T05:18:33.223Z,189.23
2018-12-18T05:21:03.433Z,93.47
2018-12-18T05:23:33.268Z,316.83
2018-12-18T05:26:03.164Z,117.33
2018-12-18T05:28:33.388Z,76.97
2018-12-18T05:31:03.304Z,164.60
2018-12-18T05:33:33.362Z,75.70
2018-12-18T05:36:04.021Z,85.23
2018-12-18T05:38:34.149Z,49.63
2018-12-18T05:41:03.923Z,70.33
2018-12-18T05:43:33.723Z,53.07
2018-12-18T05:46:03.483Z,41.77
2018-12-18T05:48:34.249Z,40.07
2018-12-18T05:51:04.257Z,53.37
2018-12-18T05:53:34.203Z,45.57
2018-12-18T05:56:04.299Z,23.27
2018-12-18T05:58:34.159Z,37.00
2018-12-18T06:01:03.957Z,39.73
2018-12-18T06:03:33.878Z,27.60
2018-12-18T06:06:04.920Z,42.17
2018-12-18T06:08:34.930Z,106.10
2018-12-18T06:11:04.873Z,75.97
2018-12-18T06:13:34.647Z,54.83
2018-12-18T06:16:04.775Z,93.70
2018-12-18T06:18:34.568Z,117.57
2018-12-18T06:21:04.462Z,87.63
2018-12-18T06:23:34.495Z,77.00
2018-12-18T06:26:04.374Z,69.73
2018-12-18T06:28:34.283Z,62.67
2018-12-18T06:31:04.706Z,156.80
2018-12-18T06:33:34.560Z,137.97
2018-12-18T06:36:04.486Z,116.57
2018-12-18T06:38:34.264Z,103.17
2018-12-18T06:41:04.060Z,140.53
2018-12-18T06:43:34.110Z,283.57
2018-12-18T06:46:04.012Z,249.70
2018-12-18T06:48:33.908Z,482.63
2018-12-18T06:51:03.626Z,380.77
2018-12-18T06:53:34.130Z,260.80
2018-12-18T06:56:03.980Z,265.90
2018-12-18T06:58:33.774Z,152.90
2018-12-18T07:01:03.802Z,383.37
2018-12-18T07:03:33.680Z,215.50
2018-12-18T07:06:04.520Z,270.70
2018-12-18T07:08:34.304Z,184.73
2018-12-18T07:11:04.482Z,248.53
2018-12-18T07:13:34.259Z,318.07
2018-12-18T07:16:04.080Z,352.43
2018-12-18T07:18:33.894Z,243.70
2018-12-18T07:21:04.002Z,182.93
2018-12-18T07:23:34.124Z,253.57
2018-12-18T07:26:04.169Z,340.90
2018-12-18T07:28:33.923Z,183.70
2018-12-18T07:31:03.691Z,120.17
2018-12-18T07:33:33.941Z,96.17
2018-12-18T07:36:03.815Z,133.70
2018-12-18T07:38:33.865Z,129.23
2018-12-18T07:41:03.655Z,151.20
2018-12-18T07:43:34.439Z,113.77
2018-12-18T07:46:04.327Z,130.40
2018-12-18T07:48:34.096Z,137.67
2018-12-18T07:51:03.979Z,227.03
2018-12-18T07:53:35.358Z,349.20
2018-12-18T07:56:05.463Z,336.20
2018-12-18T07:58:35.251Z,191.00
2018-12-18T08:01:05.025Z,208.33
2018-12-18T08:03:35.153Z,120.87
2018-12-18T08:06:05.380Z,183.87
2018-12-18T08:08:35.123Z,114.63
2018-12-18T08:11:05.165Z,87.43
2018-12-18T08:13:34.895Z,248.27
2018-12-18T08:16:04.655Z,190.23
2018-12-18T08:18:34.434Z,166.77
2018-12-18T08:21:04.661Z,308.00
2018-12-18T08:23:34.377Z,235.60
2018-12-18T08:26:04.119Z,356.60
2018-12-18T08:28:33.861Z,206.00
2018-12-18T08:31:03.671Z,159.03
2018-12-18T08:33:33.442Z,77.93
2018-12-18T08:36:03.201Z,590.93
2018-12-18T08:38:32.923Z,342.33
2018-12-18T08:41:02.647Z,111.47
2018-12-18T08:43:32.383Z,111.37
2018-12-18T08:46:02.378Z,52.97
2018-12-18T08:48:32.111Z,63.77
2018-12-18T08:51:01.892Z,404.30
2018-12-18T08:53:31.657Z,148.70
2018-12-18T08:56:01.423Z,138.07
2018-12-18T08:58:31.151Z,222.97
2018-12-18T09:01:00.929Z,136.33
2018-12-18T09:03:30.955Z,45.70
2018-12-18T09:06:00.703Z,136.23
2018-12-18T09:08:30.447Z,120.27
2018-12-18T09:11:00.448Z,61.13
2018-12-18T09:13:30.187Z,48.60
2018-12-18T09:15:59.925Z,92.23
2018-12-18T09:18:29.635Z,255.90
2018-12-18T09:20:59.391Z,154.90
2018-12-18T09:23:29.104Z,79.37
2018-12-18T09:25:58.853Z,181.93
2018-12-18T09:28:28.539Z,89.80
2018-12-18T09:30:58.259Z,79.67
2018-12-18T09:33:28.005Z,43.87
2018-12-18T09:35:57.791Z,174.00
2018-12-18T09:38:32.758Z,160.23
2018-12-18T09:41:07.622Z,97.10
2018-12-18T09:44:13.879Z,316.47
2018-12-18T09:46:43.623Z,223.17
2018-12-18T09:49:13.416Z,300.40
2018-12-18T09:51:43.265Z,295.30
2018-12-18T09:54:13.314Z,154.63
2018-12-18T09:56:48.069Z,240.40
2018-12-18T09:59:18.349Z,238.60
2018-12-18T10:01:48.597Z,286.83
2018-12-18T10:04:18.483Z,176.07
2018-12-18T10:06:48.241Z,378.03
2018-12-18T10:09:18.009Z,373.63
2018-12-18T10:11:47.801Z,617.07
2018-12-18T10:14:17.989Z,822.00
2018-12-18T10:16:47.779Z,578.37
2018-12-18T10:19:17.578Z,521.80
2018-12-18T10:21:47.417Z,457.90
2018-12-18T10:24:17.624Z,643.40
2018-12-18T10:26:47.349Z,575.73
2018-12-18T10:29:17.096Z,461.87
2018-12-18T10:31:46.830Z,572.53
2018-12-18T10:34:17.320Z,395.03
2018-12-18T10:36:47.059Z,652.03
2018-12-18T10:39:16.816Z,420.33
2018-12-18T10:41:46.515Z,169.00
2018-12-18T10:44:16.235Z,623.73
2018-12-18T10:46:46.147Z,211.23
2018-12-18T10:49:15.892Z,163.80
2018-12-18T10:51:45.646Z,217.57
2018-12-18T10:54:15.841Z,142.17
2018-12-18T10:56:45.595Z,131.67
2018-12-18T10:59:15.439Z,154.37
2018-12-18T11:01:47.866Z,44.40
2018-12-18T11:04:17.635Z,64.17
2018-12-18T11:06:47.405Z,83.07
2018-12-18T11:09:18.051Z,42.43
2018-12-18T11:11:47.784Z,38.87
2018-12-18T11:14:17.492Z,44.17
2018-12-18T11:16:47.504Z,66.43
2018-12-18T11:19:17.498Z,66.87
2018-12-18T11:21:47.246Z,49.93
2018-12-18T11:24:16.942Z,106.63
2018-12-18T11:26:46.658Z,82.43
2018-12-18T11:29:16.398Z,54.77
2018-12-18T11:31:46.131Z,234.40
2018-12-18T11:34:16.042Z,174.87
2018-12-18T11:36:45.770Z,117.10
2018-12-18T11:39:15.486Z,318.43
2018-12-18T11:41:45.225Z,457.10
2018-12-18T11:44:15.038Z,663.67
2018-12-18T11:46:44.934Z,367.40
2018-12-18T11:49:14.790Z,411.63
2018-12-18T11:51:45.367Z,256.37
2018-12-18T11:54:15.190Z,541.67
2018-12-18T11:56:44.986Z,297.57
2018-12-18T11:59:15.427Z,770.20
2018-12-18T12:01:45.499Z,551.30
2018-12-18T12:04:15.289Z,199.63
2018-12-18T12:06:45.064Z,136.17
2018-12-18T12:09:15.382Z,297.93
2018-12-18T12:11:45.178Z,372.63
2018-12-18T12:14:15.238Z,372.47
2018-12-18T12:16:44.977Z,525.90
2018-12-18T12:19:14.764Z,958.33
2018-12-18T12:21:44.505Z,1620.07
2018-12-18T12:24:14.376Z,554.13
2018-12-18T12:26:48.938Z,525.37
2018-12-18T12:29:18.760Z,189.80
2018-12-18T12:31:48.578Z,518.40
2018-12-18T12:34:19.318Z,354.70
2018-12-18T12:36:49.124Z,361.57
2018-12-18T12:39:18.886Z,168.10
2018-12-18T12:41:49.462Z,485.83
2018-12-18T12:44:19.189Z,294.57
2018-12-18T12:46:49.265Z,77.33
2018-12-18T12:49:19.110Z,370.43
2018-12-18T12:51:48.884Z,430.60
2018-12-18T12:54:18.962Z,997.40
2018-12-18T12:56:48.778Z,1069.17
2018-12-18T12:59:18.552Z,158.40
2018-12-18T13:01:48.525Z,354.67
2018-12-18T13:04:18.320Z,179.70
2018-12-18T13:06:48.129Z,497.43
2018-12-18T13:09:17.995Z,643.73
2018-12-18T13:11:47.900Z,42.20
2018-12-18T13:14:17.747Z,754.00
2018-12-18T13:16:47.596Z,120.10
2018-12-18T13:19:17.572Z,157.70
2018-12-18T13:21:47.564Z,166.87
2018-12-18T13:24:17.667Z,49.80
2018-12-18T13:26:47.593Z,60.73
2018-12-18T13:29:17.337Z,133.87
2018-12-18T13:31:47.092Z,146.93
2018-12-18T13:34:16.869Z,194.63
2018-12-18T13:36:46.638Z,374.57
2018-12-18T13:39:16.719Z,165.60
2018-12-18T13:41:46.465Z,305.63
2018-12-18T13:44:16.247Z,552.53
2018-12-18T13:46:46.034Z,387.77
2018-12-18T13:49:15.851Z,297.13
2018-12-18T13:51:45.647Z,298.97
2018-12-18T13:54:15.632Z,88.20
2018-12-18T13:56:45.388Z,147.87
2018-12-18T13:59:15.131Z,143.87
2018-12-18T14:01:44.943Z,195.23
2018-12-18T14:04:14.725Z,177.80
2018-12-18T14:06:49.705Z,105.93
2018-12-18T14:09:16.223Z,169.73
2018-12-18T14:11:45.952Z,174.80
2018-12-18T14:14:15.689Z,292.70
2018-12-18T14:16:45.416Z,177.00
2018-12-18T14:19:16.012Z,94.30
2018-12-18T14:21:45.761Z,365.47
2018-12-18T14:24:15.681Z,55.03
2018-12-18T14:26:45.759Z,171.73
2018-12-18T14:29:16.119Z,51.47
2018-12-18T14:31:45.875Z,90.50
2018-12-18T14:34:15.962Z,144.53
2018-12-18T14:36:45.726Z,200.23
2018-12-18T14:39:15.705Z,133.77
2018-12-18T14:41:45.427Z,107.70
2018-12-18T14:44:15.314Z,100.10
2018-12-18T14:46:45.048Z,98.53
2018-12-18T14:49:14.818Z,112.77
2018-12-18T14:51:44.541Z,112.57
2018-12-18T14:54:15.030Z,149.07
2018-12-18T14:56:44.809Z,73.73
2018-12-18T14:59:14.558Z,120.37
2018-12-18T15:01:46.704Z,213.10
2018-12-18T15:04:16.427Z,55.10
2018-12-18T15:06:46.156Z,97.60
2018-12-18T15:09:15.927Z,86.47
2018-12-18T15:11:45.706Z,41.00
2018-12-18T15:14:15.479Z,46.30
2018-12-18T15:16:45.203Z,136.23
2018-12-18T15:19:14.945Z,89.93
2018-12-18T15:21:44.642Z,56.20
2018-12-18T15:24:14.515Z,67.20
2018-12-18T15:26:44.353Z,300.63
2018-12-18T15:29:14.090Z,121.63
2018-12-18T15:31:43.851Z,62.50
2018-12-18T15:34:13.629Z,128.87
2018-12-18T15:36:43.414Z,126.23
2018-12-18T15:39:13.615Z,41.90
2018-12-18T15:41:43.431Z,131.70
2018-12-18T15:44:13.193Z,155.60
2018-12-18T15:46:43.003Z,75.63
2018-12-18T15:49:12.798Z,75.80
2018-12-18T15:51:42.681Z,217.37
2018-12-18T15:54:12.448Z,144.30
2018-12-18T15:56:42.223Z,67.63
2018-12-18T15:59:12.037Z,109.10
2018-12-18T16:01:41.793Z,438.80
2018-12-18T16:04:11.551Z,78.10
2018-12-18T16:06:41.271Z,103.67
2018-12-18T16:09:11.034Z,74.43
2018-12-18T16:11:40.749Z,65.50
2018-12-18T16:14:10.543Z,129.70
2018-12-18T16:16:40.593Z,122.43
2018-12-18T16:19:10.788Z,116.27
2018-12-18T16:21:41.483Z,86.40
2018-12-18T16:24:11.322Z,70.27
2018-12-18T16:26:41.092Z,78.10
2018-12-18T16:29:10.971Z,31.33
2018-12-18T16:31:40.743Z,94.40
2018-12-18T16:34:10.546Z,199.60
2018-12-18T16:36:40.330Z,203.70
2018-12-18T16:39:10.110Z,141.40
2018-12-18T16:41:39.919Z,191.63
2018-12-18T16:44:09.724Z,265.40
2018-12-18T16:46:39.886Z,164.97
2018-12-18T16:49:09.660Z,137.33
2018-12-18T16:51:39.674Z,71.23
2018-12-18T16:54:10.116Z,79.53
2018-12-18T16:56:40.446Z,179.73
2018-12-18T16:59:10.220Z,51.00
2018-12-18T17:01:40.035Z,34.60
2018-12-18T17:04:10.129Z,55.93
2018-12-18T17:06:40.294Z,137.53
2018-12-18T17:09:10.482Z,54.13
2018-12-18T17:11:40.253Z,78.23
2018-12-18T17:14:10.326Z,58.03
2018-12-18T17:16:40.325Z,53.47
2018-12-18T17:19:10.191Z,106.97
2018-12-18T17:21:40.052Z,89.83
2018-12-18T17:24:09.817Z,39.53
2018-12-18T17:26:39.657Z,44.87
2018-12-18T17:29:09.445Z,47.23
2018-12-18T17:31:39.219Z,103.70
2018-12-18T17:34:08.999Z,110.67
2018-12-18T17:36:38.799Z,266.20
2018-12-18T17:39:09.677Z,230.53
2018-12-18T17:41:39.459Z,265.57
2018-12-18T17:44:09.282Z,63.03
2018-12-18T17:46:39.051Z,50.50
2018-12-18T17:49:08.835Z,62.63
2018-12-18T17:51:38.891Z,75.47
2018-12-18T17:54:08.643Z,131.77
2018-12-18T17:56:38.374Z,56.90
2018-12-18T17:59:08.191Z,89.77
2018-12-18T18:01:37.963Z,57.17
2018-12-18T18:04:08.152Z,524.73
2018-12-18T18:06:38.261Z,95.70
2018-12-18T18:09:10.433Z,155.20
2018-12-18T18:11:40.180Z,99.77
2018-12-18T18:14:09.970Z,195.90
2018-12-18T18:16:39.797Z,33.57
2018-12-18T18:19:09.877Z,156.60
2018-12-18T18:21:39.682Z,195.70
2018-12-18T18:24:09.483Z,88.17
2018-12-18T18:26:39.233Z,358.23
2018-12-18T18:29:09.034Z,617.80
2018-12-18T18:31:38.841Z,70.40
2018-12-18T18:34:08.671Z,505.03
2018-12-18T18:36:38.635Z,293.53
2018-12-18T18:39:09.609Z,117.93
2018-12-18T18:41:39.411Z,255.63
2018-12-18T18:44:09.235Z,285.67
2018-12-18T18:46:39.433Z,342.30
2018-12-18T18:49:09.700Z,117.17
2018-12-18T18:51:39.516Z,163.57
2018-12-18T18:54:09.345Z,506.47
2018-12-18T18:56:39.141Z,510.53
2018-12-18T18:59:08.996Z,356.17
2018-12-18T19:01:39.255Z,492.07
2018-12-18T19:04:09.458Z,541.63
2018-12-18T19:06:39.764Z,360.23
2018-12-18T19:09:10.717Z,395.10
2018-12-18T19:11:41.437Z,255.00
2018-12-18T19:14:11.266Z,70.93
2018-12-18T19:16:41.114Z,150.93
2018-12-18T19:19:10.899Z,492.37
2018-12-18T19:21:41.146Z,189.17
2018-12-18T19:24:10.950Z,186.17
2018-12-18T19:26:40.790Z,417.87
2018-12-18T19:29:10.967Z,459.43
2018-12-18T19:31:40.860Z,361.97
2018-12-18T19:34:10.795Z,158.20
2018-12-18T19:36:41.571Z,312.50
2018-12-18T19:39:11.339Z,220.63
2018-12-18T19:41:41.459Z,152.80
2018-12-18T19:44:11.666Z,102.27
2018-12-18T19:46:41.462Z,97.80
2018-12-18T19:49:11.283Z,208.60
2018-12-18T19:51:41.765Z,322.33
2018-12-18T19:54:11.833Z,249.43
2018-12-18T19:56:41.646Z,396.03
2018-12-18T19:59:11.413Z,407.10
2018-12-18T20:01:41.218Z,222.97
2018-12-18T20:04:11.033Z,172.27
2018-12-18T20:06:40.782Z,125.80
2018-12-18T20:09:11.609Z,245.17
2018-12-18T20:11:42.113Z,373.73
2018-12-18T20:14:11.939Z,304.63
2018-12-18T20:16:41.778Z,199.93
2018-12-18T20:19:11.593Z,81.17
2018-12-18T20:21:41.378Z,538.60
2018-12-18T20:24:11.948Z,109.57
2018-12-18T20:26:41.882Z,145.17
2018-12-18T20:29:12.018Z,106.57
2018-12-18T20:31:41.810Z,194.63
2018-12-18T20:34:11.631Z,48.20
2018-12-18T20:36:41.738Z,71.50
2018-12-18T20:39:12.218Z,109.97
2018-12-18T20:41:41.988Z,142.83
2018-12-18T20:44:11.796Z,96.33
2018-12-18T20:46:41.928Z,90.03
2018-12-18T20:49:11.737Z,155.60
2018-12-18T20:51:41.534Z,96.43
2018-12-18T20:54:11.318Z,48.70
2018-12-18T20:56:41.094Z,64.50
2018-12-18T20:59:11.194Z,70.52
2018-12-18T21:01:41.016Z,31.50
2018-12-18T21:04:10.751Z,21.97
2018-12-18T21:06:40.567Z,69.47
2018-12-18T21:09:11.334Z,50.40
2018-12-18T21:11:41.063Z,47.50
2018-12-18T21:14:10.844Z,226.77
2018-12-18T21:16:40.666Z,28.27
2018-12-18T21:19:10.450Z,27.03
2018-12-18T21:21:40.317Z,33.20
2018-12-18T21:24:12.210Z,20.07
2018-12-18T21:26:42.046Z,27.97
2018-12-18T21:29:11.830Z,37.10
2018-12-18T21:31:42.096Z,42.90
2018-12-18T21:34:12.213Z,30.13
2018-12-18T21:36:41.943Z,48.20
2018-12-18T21:39:11.955Z,46.07
2018-12-18T21:41:41.732Z,98.40
2018-12-18T21:44:11.646Z,30.80
2018-12-18T21:46:41.615Z,75.00
2018-12-18T21:49:11.458Z,22.23
2018-12-18T21:51:41.574Z,30.73
2018-12-18T21:54:11.386Z,23.73
2018-12-18T21:56:41.133Z,33.53
2018-12-18T21:59:11.306Z,37.83
2018-12-18T22:01:41.580Z,19.30
2018-12-18T22:04:11.356Z,45.97
2018-12-18T22:06:41.376Z,41.27
2018-12-18T22:09:11.115Z,82.93
2018-12-18T22:11:40.905Z,33.97
2018-12-18T22:14:10.659Z,29.53
2018-12-18T22:16:40.634Z,53.80
2018-12-18T22:19:10.428Z,62.97
2018-12-18T22:21:40.201Z,42.17
2018-12-18T22:24:09.939Z,64.67
2018-12-18T22:26:40.063Z,38.17
2018-12-18T22:29:10.170Z,34.07
2018-12-18T22:31:39.936Z,38.73
2018-12-18T22:34:09.737Z,41.27
2018-12-18T22:36:39.499Z,45.27
2018-12-18T22:39:09.660Z,34.17
2018-12-18T22:41:39.522Z,32.93
2018-12-18T22:44:09.359Z,35.33
2018-12-18T22:46:39.286Z,30.03
2018-12-18T22:49:09.320Z,28.13
2018-12-18T22:51:39.282Z,42.80
2018-12-18T22:54:09.480Z,23.60
2018-12-18T22:56:39.400Z,24.80
2018-12-18T22:59:09.198Z,28.37
2018-12-18T23:01:45.378Z,25.87
2018-12-18T23:04:16.391Z,22.07
2018-12-18T23:06:46.752Z,19.07
2018-12-18T23:09:17.324Z,20.73
2018-12-18T23:11:47.374Z,20.57
2018-12-18T23:14:17.183Z,18.47
2018-12-18T23:16:46.954Z,19.17
2018-12-18T23:19:16.920Z,19.17
2018-12-18T23:21:46.840Z,22.63
2018-12-18T23:24:17.039Z,20.50
2018-12-18T23:26:46.851Z,19.43
2018-12-18T23:29:17.357Z,21.03
2018-12-18T23:31:47.285Z,25.83
2018-12-18T23:34:17.117Z,20.43
2018-12-18T23:36:47.068Z,23.70
2018-12-18T23:39:16.984Z,21.77
2018-12-18T23:41:47.641Z,18.00
2018-12-18T23:44:17.899Z,18.93
2018-12-18T23:46:47.677Z,17.37
2018-12-18T23:49:17.453Z,20.47
2018-12-18T23:51:47.939Z,19.50
2018-12-18T23:54:17.778Z,19.87
2018-12-18T23:56:47.638Z,28.67
2018-12-18T23:59:17.712Z,19.40
